createdAt,value
2018-05-02T00:02:21.056Z,100929.63
2018-05-02T00:04:51.624Z,100922.11
2018-05-02T00:07:24.611Z,100919.77
2018-05-02T00:09:57.031Z,100933.14
2018-05-02T00:12:27.636Z,100932.05
2018-05-02T00:15:00.050Z,100933.41
2018-05-02T00:17:33.634Z,100933.19
2018-05-02T00:20:04.066Z,100934.84
2018-05-02T00:22:34.685Z,100923.75
2018-05-02T00:25:05.458Z,100929.52
2018-05-02T00:27:35.872Z,100929.31
2018-05-02T00:30:07.701Z,100930.48
2018-05-02T00:32:38.284Z,100927.06
2018-05-02T00:35:09.442Z,100923.83
2018-05-02T00:37:40.721Z,100917.69
2018-05-02T00:40:11.174Z,100919.61
2018-05-02T00:42:42.081Z,100919.39
2018-05-02T00:45:15.416Z,100926.70
2018-05-02T00:47:45.610Z,100924.84
2018-05-02T00:50:17.397Z,100920.83
2018-05-02T00:52:47.831Z,100904.81
2018-05-02T00:55:18.658Z,100918.45
2018-05-02T00:57:49.753Z,100913.91
2018-05-02T01:00:20.507Z,100906.97
2018-05-02T01:02:50.968Z,100891.65
2018-05-02T01:05:21.495Z,100915.63
2018-05-02T01:07:51.893Z,100912.02
2018-05-02T01:10:24.282Z,100926.84
2018-05-02T01:12:56.118Z,100924.95
2018-05-02T01:15:27.316Z,100926.22
2018-05-02T01:17:58.038Z,100932.50
2018-05-02T01:20:28.242Z,100921.40
2018-05-02T01:22:58.903Z,100933.13
2018-05-02T01:25:30.412Z,100932.64
2018-05-02T01:28:00.753Z,100930.53
2018-05-02T01:30:31.692Z,100928.61
2018-05-02T01:33:02.479Z,100928.66
2018-05-02T01:35:32.991Z,100928.34
2018-05-02T01:38:03.297Z,100930.00
2018-05-02T01:40:33.854Z,100929.52
2018-05-02T01:43:04.946Z,100927.52
2018-05-02T01:45:35.526Z,100928.41
2018-05-02T01:48:06.558Z,100930.69
2018-05-02T01:50:37.280Z,100925.17
2018-05-02T01:53:07.662Z,100921.86
2018-05-02T01:55:38.333Z,100922.25
2018-05-02T01:58:08.963Z,100923.09
2018-05-02T02:00:40.818Z,100914.75
2018-05-02T02:03:11.412Z,100913.16
2018-05-02T02:05:41.964Z,100910.08
2018-05-02T02:08:13.057Z,100905.66
2018-05-02T02:10:43.602Z,100904.16
2018-05-02T02:13:14.415Z,100898.84
2018-05-02T02:15:46.760Z,100900.48
2018-05-02T02:18:17.147Z,100890.53
2018-05-02T02:20:47.609Z,100889.86
2018-05-02T02:23:20.130Z,100889.31
2018-05-02T02:25:51.668Z,100887.30
2018-05-02T02:28:22.257Z,100887.09
2018-05-02T02:30:53.429Z,100890.67
2018-05-02T02:33:23.778Z,100882.13
2018-05-02T02:35:54.142Z,100879.35
2018-05-02T02:38:25.117Z,100886.67
2018-05-02T02:41:00.428Z,100888.47
2018-05-02T02:43:35.423Z,100882.98
2018-05-02T02:46:07.655Z,100883.83
2018-05-02T02:48:37.805Z,100873.77
2018-05-02T02:51:08.476Z,100872.27
2018-05-02T02:53:38.679Z,100872.00
2018-05-02T02:56:09.040Z,100876.10
2018-05-02T02:58:42.128Z,100876.20
2018-05-02T03:01:13.016Z,100879.55
2018-05-02T03:03:44.704Z,100883.75
2018-05-02T03:06:15.296Z,100879.42
2018-05-02T03:08:47.873Z,100875.58
2018-05-02T03:11:18.670Z,100871.92
2018-05-02T03:13:49.282Z,100873.69
2018-05-02T03:16:20.195Z,100856.75
2018-05-02T03:18:50.721Z,100875.29
2018-05-02T03:21:21.062Z,100871.59
2018-05-02T03:23:51.372Z,100871.79
2018-05-02T03:26:22.020Z,100870.31
2018-05-02T03:28:52.208Z,100872.44
2018-05-02T03:31:22.894Z,100865.63
2018-05-02T03:33:53.018Z,100871.68
2018-05-02T03:36:23.925Z,100877.52
2018-05-02T03:38:54.487Z,100875.72
2018-05-02T03:41:24.727Z,100869.78
2018-05-02T03:43:55.944Z,100876.56
2018-05-02T03:46:27.277Z,100871.16
2018-05-02T03:48:58.000Z,100876.30
2018-05-02T03:51:29.305Z,100870.78
2018-05-02T03:54:00.237Z,100874.81
2018-05-02T03:56:30.981Z,100868.83
2018-05-02T03:59:07.576Z,100878.66
2018-05-02T04:01:49.019Z,100879.75
2018-05-02T04:04:34.031Z,100888.23
2018-05-02T04:07:15.056Z,100891.66
2018-05-02T04:09:51.357Z,100890.77
2018-05-02T04:12:22.510Z,100893.63
2018-05-02T04:14:53.355Z,100892.78
2018-05-02T04:17:24.626Z,100894.52
2018-05-02T04:19:59.383Z,100894.04
2018-05-02T04:22:29.693Z,100885.00
2018-05-02T04:25:00.979Z,100899.06
2018-05-02T04:27:31.738Z,100901.22
2018-05-02T04:30:05.457Z,100901.52
2018-05-02T04:32:36.104Z,100907.09
2018-05-02T04:35:06.830Z,100912.69
2018-05-02T04:37:37.851Z,100915.97
2018-05-02T04:40:08.208Z,100917.35
2018-05-02T04:42:38.572Z,100911.78
2018-05-02T04:45:15.642Z,100908.22
2018-05-02T04:47:48.929Z,100908.64
2018-05-02T04:50:19.556Z,100907.44
2018-05-02T04:52:49.714Z,100914.98
2018-05-02T04:55:20.147Z,100911.19
2018-05-02T04:57:51.660Z,100911.38
2018-05-02T05:00:24.429Z,100918.39
2018-05-02T05:02:55.011Z,100921.97
2018-05-02T05:05:26.644Z,100925.73
2018-05-02T05:07:57.941Z,100919.76
2018-05-02T05:10:30.362Z,100929.95
2018-05-02T05:13:01.504Z,100931.69
2018-05-02T05:15:32.195Z,100931.16
2018-05-02T05:18:03.524Z,100940.92
2018-05-02T05:20:34.248Z,100938.36
2018-05-02T05:23:04.533Z,100939.59
2018-05-02T05:28:32.366Z,100946.78
2018-05-02T05:31:03.068Z,100921.05
2018-05-02T05:33:34.627Z,100936.00
2018-05-02T05:36:06.000Z,100943.89
2018-05-02T05:38:36.699Z,100939.92
2018-05-02T05:41:07.969Z,100938.58
2018-05-02T05:43:38.705Z,100937.48
2018-05-02T05:46:09.305Z,100936.47
2018-05-02T05:51:17.755Z,100930.30
2018-05-02T05:53:50.393Z,100934.55
2018-05-02T05:56:21.988Z,100937.67
2018-05-02T06:01:26.129Z,100944.84
2018-05-02T06:03:56.416Z,100919.80
2018-05-02T06:06:28.127Z,100937.34
2018-05-02T06:09:07.740Z,100945.07
2018-05-02T06:11:46.462Z,100949.19
2018-05-02T06:14:18.782Z,100940.56
2018-05-02T06:17:00.261Z,100950.91
2018-05-02T06:19:32.669Z,100948.00
2018-05-02T06:22:03.663Z,100946.89
2018-05-02T06:24:34.063Z,100943.69
2018-05-02T06:27:09.585Z,100941.50
2018-05-02T06:29:42.015Z,100940.97
2018-05-02T06:32:12.971Z,100940.33
2018-05-02T06:34:44.351Z,100944.50
2018-05-02T06:37:26.648Z,100938.80
2018-05-02T06:39:58.736Z,100930.58
2018-05-02T06:42:30.747Z,100917.73
2018-05-02T06:45:04.157Z,100932.75
2018-05-02T06:47:37.011Z,100925.47
2018-05-02T06:50:10.724Z,100937.20
2018-05-02T06:52:43.798Z,100937.59
2018-05-02T06:55:16.429Z,100906.62
2018-05-02T07:00:50.229Z,100932.34
2018-05-02T07:03:22.183Z,100917.43
2018-05-02T07:05:53.368Z,100929.28
2018-05-02T07:08:25.316Z,100935.95
2018-05-02T07:10:56.106Z,100932.66
2018-05-02T07:13:37.453Z,100933.55
2018-05-02T07:16:15.075Z,100936.65
2018-05-02T07:18:47.906Z,100937.38
2018-05-02T07:21:20.208Z,100934.00
2018-05-02T07:23:51.490Z,100934.52
2018-05-02T07:28:59.260Z,100932.37
2018-05-02T07:31:30.001Z,100926.70
2018-05-02T07:34:01.668Z,100926.30
2018-05-02T07:36:37.954Z,100923.00
2018-05-02T07:39:11.021Z,100926.98
2018-05-02T07:41:41.910Z,100922.69
2018-05-02T07:44:13.145Z,100908.66
2018-05-02T07:46:50.228Z,100915.53
2018-05-02T07:49:36.547Z,100929.44
2018-05-02T07:52:12.235Z,100929.84
2018-05-02T07:54:43.323Z,100902.85
2018-05-02T07:57:14.295Z,100921.94
2018-05-02T07:59:45.448Z,100923.00
2018-05-02T08:02:17.299Z,100923.89
2018-05-02T08:04:48.418Z,100921.64
2018-05-02T08:07:22.460Z,100899.74
2018-05-02T08:09:55.728Z,100908.34
2018-05-02T08:12:25.946Z,100911.31
2018-05-02T08:14:56.759Z,100908.55
2018-05-02T08:17:30.228Z,100914.48
2018-05-02T08:20:00.392Z,100913.03
2018-05-02T08:22:31.708Z,100902.38
2018-05-02T08:25:02.245Z,100881.30
2018-05-02T08:27:32.711Z,100896.77
2018-05-02T08:30:23.539Z,100878.90
2018-05-02T08:33:08.350Z,100868.06
2018-05-02T08:35:41.244Z,100881.39
2018-05-02T08:38:12.131Z,100865.21
2018-05-02T08:40:42.449Z,100882.69
2018-05-02T08:43:13.359Z,100877.14
2018-05-02T08:48:29.160Z,100846.95
2018-05-02T08:51:02.046Z,100854.77
2018-05-02T08:53:32.671Z,100857.26
2018-05-02T08:56:03.428Z,100860.77
2018-05-02T08:58:41.441Z,100861.28
2018-05-02T09:01:13.877Z,100854.61
2018-05-02T09:03:44.247Z,100856.33
2018-05-02T09:06:14.994Z,100860.81
2018-05-02T09:08:45.807Z,100858.30
2018-05-02T09:11:16.369Z,100836.86
2018-05-02T09:13:49.238Z,100845.25
2018-05-02T09:16:22.462Z,100848.56
2018-05-02T09:18:56.264Z,100852.62
2018-05-02T09:21:26.677Z,100847.30
2018-05-02T09:23:58.185Z,100840.53
2018-05-02T09:26:37.963Z,100843.34
2018-05-02T09:29:08.719Z,100847.81
2018-05-02T09:31:46.116Z,100842.40
2018-05-02T09:34:17.021Z,100812.79
2018-05-02T09:36:48.881Z,100847.95
2018-05-02T09:39:25.908Z,100843.97
2018-05-02T09:41:56.823Z,100826.42
2018-05-02T09:44:30.349Z,100832.41
2018-05-02T09:47:03.546Z,100826.26
2018-05-02T09:49:35.331Z,100824.56
2018-05-02T09:52:10.029Z,100823.45
2018-05-02T09:54:45.819Z,100810.88
2018-05-02T09:57:17.753Z,100817.34
2018-05-02T09:59:50.899Z,100808.46
2018-05-02T10:02:21.869Z,100815.05
2018-05-02T10:07:25.292Z,100819.41
2018-05-02T10:10:11.780Z,100801.50
2018-05-02T10:12:43.993Z,100818.37
2018-05-02T10:15:17.580Z,100816.80
2018-05-02T10:17:49.707Z,100814.02
2018-05-02T10:20:20.038Z,100797.58
2018-05-02T10:22:52.173Z,100808.56
2018-05-02T10:25:28.485Z,100796.11
2018-05-02T10:28:03.755Z,100786.72
2018-05-02T10:30:39.326Z,100794.52
2018-05-02T10:33:10.163Z,100800.14
2018-05-02T10:35:41.706Z,100807.75
2018-05-02T10:41:03.360Z,100774.91
2018-05-02T10:43:33.783Z,100789.22
2018-05-02T10:46:04.348Z,100788.34
2018-05-02T10:48:36.430Z,100773.80
2018-05-02T10:51:10.171Z,100776.20
2018-05-02T10:53:46.939Z,100768.03
2018-05-02T10:58:43.709Z,100761.10
2018-05-02T11:01:17.326Z,100751.42
2018-05-02T11:03:56.364Z,100755.64
2018-05-02T11:06:34.453Z,100727.38
2018-05-02T11:09:08.895Z,100751.70
2018-05-02T11:11:40.238Z,100764.22
2018-05-02T11:14:10.512Z,100750.58
2018-05-02T11:16:42.951Z,100745.58
2018-05-02T11:19:23.802Z,100749.95
2018-05-02T11:21:57.796Z,100737.36
2018-05-02T11:24:29.639Z,100748.78
2018-05-02T11:27:00.274Z,100741.84
2018-05-02T11:29:39.786Z,100739.11
2018-05-02T11:32:11.243Z,100742.47
2018-05-02T11:34:44.722Z,100725.66
2018-05-02T11:37:21.848Z,100722.09
2018-05-02T11:39:58.829Z,100723.36
2018-05-02T11:42:37.543Z,100720.92
2018-05-02T11:45:08.809Z,100717.10
2018-05-02T11:47:39.635Z,100711.73
2018-05-02T11:50:10.386Z,100719.83
2018-05-02T11:52:47.049Z,100714.67
2018-05-02T11:55:18.326Z,100722.44
2018-05-02T11:57:50.335Z,100709.39
2018-05-02T12:00:22.397Z,100711.83
2018-05-02T12:02:54.885Z,100716.78
2018-05-02T12:05:25.913Z,100718.19
2018-05-02T12:10:26.245Z,100704.01
2018-05-02T12:12:57.742Z,100693.50
2018-05-02T12:15:28.398Z,100700.29
2018-05-02T12:18:01.646Z,100697.83
2018-05-02T12:20:32.169Z,100697.83
2018-05-02T12:23:02.489Z,100695.21
2018-05-02T12:25:33.362Z,100694.44
2018-05-02T12:28:05.300Z,100680.70
2018-05-02T12:30:35.960Z,100692.64
2018-05-02T12:33:06.221Z,100692.17
2018-05-02T12:35:40.351Z,100684.66
2018-05-02T12:38:15.416Z,100673.34
2018-05-02T12:40:48.701Z,100672.16
2018-05-02T12:43:21.691Z,100678.80
2018-05-02T12:45:53.829Z,100671.02
2018-05-02T12:48:24.186Z,100671.02
2018-05-02T12:50:55.755Z,100653.49
2018-05-02T12:53:26.845Z,100651.92
2018-05-02T12:55:58.453Z,100651.55
2018-05-02T12:58:33.958Z,100653.23
2018-05-02T13:01:07.447Z,100642.01
2018-05-02T13:03:39.261Z,100643.66
2018-05-02T13:06:09.791Z,100647.65
2018-05-02T13:08:40.771Z,100629.27
2018-05-02T13:11:25.591Z,100637.75
2018-05-02T13:13:59.300Z,100613.36
2018-05-02T13:16:46.627Z,100617.43
2018-05-02T13:19:18.380Z,100620.80
2018-05-02T13:21:49.936Z,100605.76
2018-05-02T13:24:20.848Z,100616.07
2018-05-02T13:26:51.869Z,100603.67
2018-05-02T13:29:24.474Z,100602.45
2018-05-02T13:34:54.001Z,100591.61
2018-05-02T13:37:26.801Z,100590.16
2018-05-02T13:40:08.643Z,100584.72
2018-05-02T13:42:39.266Z,100582.19
2018-05-02T13:45:15.148Z,100576.18
2018-05-02T13:47:46.532Z,100563.40
2018-05-02T13:50:26.378Z,100569.80
2018-05-02T13:52:59.218Z,100565.78
2018-05-02T13:55:30.072Z,100562.12
2018-05-02T13:58:01.447Z,100543.45
2018-05-02T14:00:43.343Z,100553.73
2018-05-02T14:03:19.133Z,100548.58
2018-05-02T14:05:52.425Z,100553.96
2018-05-02T14:08:30.215Z,100549.05
2018-05-02T14:11:02.033Z,100540.85
2018-05-02T14:13:33.627Z,100538.11
2018-05-02T14:16:05.651Z,100536.04
2018-05-02T14:18:39.514Z,100544.08
2018-05-02T14:21:10.837Z,100551.09
2018-05-02T14:23:41.886Z,100532.27
2018-05-02T14:26:13.577Z,100539.78
2018-05-02T14:28:49.386Z,100519.07
2018-05-02T14:31:47.506Z,100524.28
2018-05-02T14:34:19.475Z,100523.88
2018-05-02T14:36:53.240Z,100526.00
2018-05-02T14:39:30.756Z,100535.67
2018-05-02T14:42:02.779Z,100531.64
2018-05-02T14:44:34.442Z,100532.47
2018-05-02T14:47:07.519Z,100536.90
2018-05-02T14:49:47.137Z,100534.20
2018-05-02T14:52:20.582Z,100530.07
2018-05-02T14:54:52.634Z,100508.28
2018-05-02T14:57:23.966Z,100526.79
2018-05-02T14:59:55.951Z,100507.09
2018-05-02T15:02:27.064Z,100518.34
2018-05-02T15:04:58.134Z,100505.77
2018-05-02T15:07:30.018Z,100520.10
2018-05-02T15:10:02.904Z,100502.31
2018-05-02T15:12:37.722Z,100518.67
2018-05-02T15:15:16.534Z,100496.49
2018-05-02T15:17:56.316Z,100510.78
2018-05-02T15:20:27.611Z,100512.19
2018-05-02T15:22:58.445Z,100507.61
2018-05-02T15:25:30.663Z,100502.96
2018-05-02T15:28:07.696Z,100496.93
2018-05-02T15:30:56.806Z,100508.49
2018-05-02T15:33:34.352Z,100508.31
2018-05-02T15:36:06.090Z,100501.66
2018-05-02T15:38:41.683Z,100500.23
2018-05-02T15:41:14.732Z,100495.66
2018-05-02T15:43:45.277Z,100506.69
2018-05-02T15:46:16.388Z,100498.98
2018-05-02T15:48:47.569Z,100485.98
2018-05-02T15:51:17.827Z,100494.41
2018-05-02T15:53:48.337Z,100484.00
2018-05-02T15:56:19.104Z,100498.98
2018-05-02T15:58:50.649Z,100478.44
2018-05-02T16:01:21.275Z,100485.24
2018-05-02T16:03:52.392Z,100483.87
2018-05-02T16:06:23.248Z,100480.02
2018-05-02T16:08:57.592Z,100491.13
2018-05-02T16:11:29.523Z,100462.27
2018-05-02T16:14:00.991Z,100481.19
2018-05-02T16:16:32.340Z,100478.08
2018-05-02T16:19:13.236Z,100475.05
2018-05-02T16:21:45.033Z,100477.65
2018-05-02T16:24:17.058Z,100479.95
2018-05-02T16:26:47.468Z,100483.81
2018-05-02T16:29:19.076Z,100483.36
2018-05-02T16:31:51.536Z,100476.77
2018-05-02T16:34:22.575Z,100472.42
2018-05-02T16:36:58.044Z,100488.77
2018-05-02T16:39:33.968Z,100482.45
2018-05-02T16:42:04.621Z,100478.30
2018-05-02T16:44:35.127Z,100479.72
2018-05-02T16:47:05.919Z,100483.23
2018-05-02T16:49:36.263Z,100488.09
2018-05-02T16:52:07.536Z,100487.64
2018-05-02T16:54:44.088Z,100488.76
2018-05-02T16:57:14.670Z,100472.11
2018-05-02T16:59:46.947Z,100483.95
2018-05-02T17:02:29.514Z,100483.89
2018-05-02T17:05:00.107Z,100481.91
2018-05-02T17:07:33.594Z,100488.80
2018-05-02T17:10:11.629Z,100486.19
2018-05-02T17:12:56.345Z,100486.91
2018-05-02T17:15:27.577Z,100501.39
2018-05-02T17:17:58.603Z,100492.77
2018-05-02T17:20:29.115Z,100489.54
2018-05-02T17:23:00.104Z,100489.54
2018-05-02T17:25:31.756Z,100493.89
2018-05-02T17:28:02.887Z,100492.78
2018-05-02T17:30:34.786Z,100495.84
2018-05-02T17:33:07.634Z,100471.23
2018-05-02T17:35:40.026Z,100494.19
2018-05-02T17:38:10.965Z,100502.18
2018-05-02T17:40:43.716Z,100492.88
2018-05-02T17:43:19.556Z,100510.28
2018-05-02T17:45:54.077Z,100506.07
2018-05-02T17:48:26.101Z,100509.33
2018-05-02T17:50:57.879Z,100510.12
2018-05-02T17:53:29.412Z,100518.07
2018-05-02T17:56:00.309Z,100520.52
2018-05-02T17:58:31.585Z,100515.70
2018-05-02T18:01:03.361Z,100492.14
2018-05-02T18:03:33.897Z,100514.62
2018-05-02T18:06:04.312Z,100518.00
2018-05-02T18:11:16.626Z,100524.97
2018-05-02T18:13:48.151Z,100527.47
2018-05-02T18:16:19.223Z,100522.54
2018-05-02T18:18:50.605Z,100527.11
2018-05-02T18:21:22.236Z,100524.16
2018-05-02T18:23:53.599Z,100533.56
2018-05-02T18:26:24.378Z,100532.45
2018-05-02T18:33:54.485Z,100536.56
2018-05-02T18:36:28.443Z,100547.38
2018-05-02T18:38:58.937Z,100538.92
2018-05-02T18:41:31.417Z,100543.63
2018-05-02T18:44:02.366Z,100544.94
2018-05-02T18:46:55.636Z,100561.44
2018-05-02T18:52:05.834Z,100554.33
2018-05-02T18:54:36.271Z,100561.38
2018-05-02T18:57:06.572Z,100559.20
2018-05-02T18:59:38.874Z,100564.72
2018-05-02T19:02:10.317Z,100559.66
2018-05-02T19:04:42.320Z,100565.84
2018-05-02T19:07:13.291Z,100565.91
2018-05-02T19:09:44.569Z,100567.92
2018-05-02T19:12:16.677Z,100575.93
2018-05-02T19:14:49.092Z,100576.35
2018-05-02T19:17:20.427Z,100576.25
2018-05-02T19:20:55.854Z,100573.95
2018-05-02T19:23:26.488Z,100586.84
2018-05-02T19:27:02.372Z,100590.63
2018-05-02T19:29:36.995Z,100582.07
2018-05-02T19:34:19.982Z,100600.13
2018-05-02T19:36:51.315Z,100607.73
2018-05-02T19:39:22.633Z,100600.15
2018-05-02T19:44:01.250Z,100606.09
2018-05-02T19:46:33.242Z,100603.31
2018-05-02T19:49:04.487Z,100609.56
2018-05-02T19:51:39.455Z,100598.32
2018-05-02T19:54:09.922Z,100606.27
2018-05-02T19:56:40.231Z,100616.24
2018-05-02T19:59:11.809Z,100613.76
2018-05-02T20:03:48.584Z,100617.27
2018-05-02T20:06:18.997Z,100613.27
2018-05-02T20:10:59.103Z,100621.81
2018-05-02T20:13:35.027Z,100639.42
2018-05-02T20:16:08.492Z,100637.22
2018-05-02T20:18:39.761Z,100640.59
2018-05-02T20:21:10.192Z,100637.00
2018-05-02T20:23:41.520Z,100635.23
2018-05-02T20:26:12.501Z,100634.41
2018-05-02T20:28:45.890Z,100638.53
2018-05-02T20:31:17.815Z,100635.61
2018-05-02T20:33:49.794Z,100640.77
2018-05-02T20:36:20.296Z,100640.23
2018-05-02T20:38:51.564Z,100636.13
2018-05-02T20:41:22.533Z,100645.73
2018-05-02T20:43:57.175Z,100639.73
2018-05-02T20:46:28.729Z,100636.97
2018-05-02T20:49:00.880Z,100640.45
2018-05-02T20:51:32.032Z,100646.42
2018-05-02T20:54:02.729Z,100652.11
2018-05-02T20:56:33.640Z,100656.58
2018-05-02T20:59:04.727Z,100655.99
2018-05-02T21:01:35.413Z,100656.20
2018-05-02T21:04:05.721Z,100653.05
2018-05-02T21:06:46.518Z,100655.78
2018-05-02T21:09:17.026Z,100656.94
2018-05-02T21:11:48.184Z,100651.80
2018-05-02T21:14:19.164Z,100652.72
2018-05-02T21:16:50.380Z,100660.41
2018-05-02T21:19:20.920Z,100655.81
2018-05-02T21:21:51.366Z,100659.84
2018-05-02T21:24:21.773Z,100660.11
2018-05-02T21:26:58.600Z,100663.69
2018-05-02T21:29:29.716Z,100662.38
2018-05-02T21:32:01.557Z,100658.13
2018-05-02T21:34:36.025Z,100664.23
2018-05-02T21:37:06.403Z,100671.09
2018-05-02T21:39:36.860Z,100664.50
2018-05-02T21:42:07.261Z,100668.63
2018-05-02T21:44:38.521Z,100679.74
2018-05-02T21:47:09.636Z,100684.14
2018-05-02T21:49:41.121Z,100674.65
2018-05-02T21:52:11.663Z,100678.14
2018-05-02T21:54:42.808Z,100671.36
2018-05-02T21:57:14.783Z,100674.36
2018-05-02T21:59:46.049Z,100670.63
2018-05-02T22:02:33.276Z,100678.86
2018-05-02T22:05:15.313Z,100688.91
2018-05-02T22:07:45.668Z,100680.79
2018-05-02T22:10:27.522Z,100687.66
2018-05-02T22:12:58.361Z,100693.45
2018-05-02T22:15:30.372Z,100687.61
2018-05-02T22:18:02.942Z,100693.48
2018-05-02T22:20:33.292Z,100685.75
2018-05-02T22:23:03.801Z,100698.16
2018-05-02T22:25:34.622Z,100697.20
2018-05-02T22:28:06.276Z,100704.42
2018-05-02T22:30:37.293Z,100707.54
2018-05-02T22:33:07.647Z,100713.22
2018-05-02T22:35:38.441Z,100712.46
2018-05-02T22:38:08.968Z,100720.45
2018-05-02T22:40:39.578Z,100714.55
2018-05-02T22:43:10.366Z,100717.58
2018-05-02T22:45:42.062Z,100728.84
2018-05-02T22:48:12.526Z,100729.39
2018-05-02T22:50:43.179Z,100727.62
2018-05-02T22:53:13.469Z,100727.41
2018-05-02T22:55:45.161Z,100726.57
2018-05-02T22:58:15.682Z,100721.61
2018-05-02T23:00:46.765Z,100727.91
2018-05-02T23:03:17.714Z,100725.85
2018-05-02T23:05:48.050Z,100723.70
2018-05-02T23:08:18.471Z,100725.46
2018-05-02T23:10:48.708Z,100728.03
2018-05-02T23:13:20.368Z,100733.42
2018-05-02T23:15:51.618Z,100737.15
2018-05-02T23:18:22.195Z,100730.34
2018-05-02T23:20:52.491Z,100740.59
2018-05-02T23:23:22.860Z,100738.75
2018-05-02T23:25:53.598Z,100738.29
2018-05-02T23:28:25.119Z,100745.41
2018-05-02T23:30:56.882Z,100740.73
2018-05-02T23:33:37.013Z,100743.55
2018-05-02T23:36:08.436Z,100744.83
2018-05-02T23:38:38.830Z,100741.38
2018-05-02T23:41:08.989Z,100738.61
2018-05-02T23:43:39.350Z,100740.32
2018-05-02T23:46:10.754Z,100735.75
2018-05-02T23:48:41.647Z,100743.09
2018-05-02T23:51:12.231Z,100732.33
2018-05-02T23:53:42.642Z,100748.21
2018-05-02T23:56:13.461Z,100731.17
2018-05-02T23:58:43.861Z,100733.27
